Time;durP1;ratioP1;P1;durP2;ratioP2;P2;SDS_P1;SDS_P2;PMS_P1;PMS_P2;Temp;Humidity;BMP_temperature;BMP_pressure;BME280_temperature;BME280_humidity;BME280_pressure;Samples;Min_cycle;Max_cycle;Signal;HPM_P1;HPM_P2
2021/01/03 00:01:06;;;;;;;186.40;51.92;;;5.30;99.90;;;;;;5050494;28;20033;-81
2021/01/03 00:03:34;;;;;;;184.30;50.08;;;5.30;99.90;;;;;;5046993;28;20017;-81
2021/01/03 00:06:08;;;;;;;192.20;55.88;;;5.20;99.90;;;;;;5043606;28;20401;-81
2021/01/03 00:08:37;;;;;;;176.23;50.47;;;5.30;99.90;;;;;;5052322;28;20389;-81
2021/01/03 00:11:15;;;;;;;197.13;51.00;;;5.20;99.90;;;;;;5050641;28;20477;-81
2021/01/03 00:13:44;;;;;;;178.27;51.22;;;5.20;99.90;;;;;;5049683;28;20052;-81
2021/01/03 00:16:09;;;;;;;211.63;52.63;;;5.20;99.90;;;;;;5052538;28;20050;-80
2021/01/03 00:18:41;;;;;;;192.02;51.63;;;5.20;99.90;;;;;;5047256;28;20021;-80
2021/01/03 00:21:07;;;;;;;164.98;51.28;;;5.20;99.90;;;;;;5046035;28;20045;-80
2021/01/03 00:23:32;;;;;;;177.38;55.13;;;5.20;99.90;;;;;;5048542;28;20452;-80
2021/01/03 00:26:01;;;;;;;179.95;53.10;;;5.10;99.90;;;;;;5046427;28;20382;-80
2021/01/03 00:28:29;;;;;;;185.32;52.97;;;5.10;99.90;;;;;;5050953;28;20028;-81
2021/01/03 00:30:57;;;;;;;152.45;50.17;;;5.10;99.90;;;;;;5047692;28;20048;-80
2021/01/03 00:33:23;;;;;;;160.27;49.80;;;5.20;99.90;;;;;;5045862;28;20032;-80
2021/01/03 00:35:50;;;;;;;152.68;47.00;;;5.20;99.90;;;;;;5047422;28;20029;-78
2021/01/03 00:38:19;;;;;;;137.85;45.92;;;5.10;99.90;;;;;;5047309;28;20044;-80
2021/01/03 00:40:46;;;;;;;152.90;45.97;;;5.10;99.90;;;;;;5045131;28;20025;-80
2021/01/03 00:43:14;;;;;;;137.05;45.60;;;5.10;99.90;;;;;;5045786;28;20389;-80
2021/01/03 00:45:50;;;;;;;137.50;42.95;;;5.10;99.90;;;;;;5042018;28;20030;-80
2021/01/03 00:48:17;;;;;;;134.07;46.22;;;5.20;99.90;;;;;;5047103;28;20474;-80
2021/01/03 00:50:46;;;;;;;136.23;44.05;;;5.10;99.90;;;;;;5043659;28;20025;-80
2021/01/03 00:53:11;;;;;;;132.25;45.47;;;5.20;99.90;;;;;;5047224;28;20056;-79
2021/01/03 00:55:39;;;;;;;141.18;45.03;;;5.20;99.90;;;;;;5047734;28;20099;-80
2021/01/03 00:58:05;;;;;;;143.57;43.75;;;5.20;99.90;;;;;;5051721;28;20027;-79
2021/01/03 01:00:37;;;;;;;139.45;43.67;;;5.20;99.90;;;;;;5046917;28;20397;-80
2021/01/03 01:03:06;;;;;;;126.85;42.75;;;5.10;99.90;;;;;;5048380;28;20414;-79
2021/01/03 01:05:34;;;;;;;134.57;43.67;;;5.10;99.90;;;;;;5045504;28;20083;-79
2021/01/03 01:08:03;;;;;;;144.60;44.30;;;5.00;99.90;;;;;;5051634;28;20362;-79
2021/01/03 01:10:31;;;;;;;134.60;42.80;;;5.00;99.90;;;;;;5049140;28;20102;-79
2021/01/03 01:13:01;;;;;;;139.35;45.83;;;5.10;99.90;;;;;;5051354;28;20476;-80
2021/01/03 01:15:30;;;;;;;153.55;45.05;;;5.10;99.90;;;;;;5054859;28;20099;-80
2021/01/03 01:18:02;;;;;;;150.63;44.72;;;5.10;99.90;;;;;;5047860;28;20099;-80
2021/01/03 01:20:29;;;;;;;166.90;48.42;;;5.10;99.90;;;;;;5055747;28;20552;-79
2021/01/03 01:22:56;;;;;;;151.52;47.30;;;5.10;99.90;;;;;;5052040;28;20096;-80
2021/01/03 01:25:24;;;;;;;165.75;47.75;;;5.20;99.90;;;;;;5063917;28;20017;-80
2021/01/03 01:27:51;;;;;;;167.43;47.40;;;5.10;99.90;;;;;;5049363;28;20048;-80
2021/01/03 01:30:18;;;;;;;161.30;47.00;;;5.10;99.90;;;;;;5047413;28;20025;-80
2021/01/03 01:32:45;;;;;;;173.00;48.97;;;5.10;99.90;;;;;;5051968;28;20039;-80
2021/01/03 01:35:16;;;;;;;162.48;47.42;;;5.00;99.90;;;;;;5047515;28;20044;-80
2021/01/03 01:37:42;;;;;;;156.27;46.17;;;5.10;99.90;;;;;;5050061;28;20017;-80
2021/01/03 01:40:11;;;;;;;153.70;46.65;;;5.20;99.90;;;;;;5048245;28;20051;-80
2021/01/03 01:42:37;;;;;;;149.18;47.80;;;5.20;99.90;;;;;;5048234;28;20422;-80
2021/01/03 01:45:11;;;;;;;147.20;49.13;;;5.20;99.90;;;;;;5051095;28;20037;-80
2021/01/03 01:47:42;;;;;;;192.73;50.67;;;5.20;99.90;;;;;;5048369;28;20078;-80
2021/01/03 01:50:15;;;;;;;161.38;50.45;;;5.30;99.90;;;;;;5051898;28;20056;-80
2021/01/03 01:52:45;;;;;;;152.70;47.50;;;5.30;99.90;;;;;;5055778;28;20073;-80
2021/01/03 01:55:18;;;;;;;151.82;47.78;;;5.40;99.90;;;;;;5052088;28;20128;-80
2021/01/03 01:58:09;;;;;;;163.93;49.13;;;5.40;99.90;;;;;;5049388;28;20037;-80
2021/01/03 02:00:41;;;;;;;161.95;50.50;;;5.40;99.90;;;;;;5050285;28;20108;-80
2021/01/03 02:03:35;;;;;;;146.50;47.42;;;5.40;99.90;;;;;;5040454;28;20029;-80
2021/01/03 02:06:09;;;;;;;155.07;48.15;;;5.40;99.90;;;;;;5044097;28;20033;-80
2021/01/03 02:08:46;;;;;;;149.38;48.00;;;5.40;99.90;;;;;;5049875;28;20013;-80
2021/01/03 02:11:16;;;;;;;156.02;48.47;;;5.40;99.90;;;;;;5049676;28;20420;-80
2021/01/03 02:13:53;;;;;;;169.43;48.58;;;5.40;99.90;;;;;;5052137;28;20067;-80
2021/01/03 02:16:22;;;;;;;150.93;47.13;;;5.30;99.90;;;;;;5047827;28;20033;-80
2021/01/03 02:18:52;;;;;;;143.05;47.63;;;5.40;99.90;;;;;;5053898;28;20025;-80
2021/01/03 02:21:57;;;;;;;152.27;47.70;;;5.40;99.90;;;;;;5047259;28;20025;-80
2021/01/03 02:24:40;;;;;;;140.82;43.88;;;5.40;99.90;;;;;;5054678;28;20428;-80
2021/01/03 02:27:23;;;;;;;143.40;47.72;;;5.40;99.90;;;;;;5049621;28;20030;-80
2021/01/03 02:29:53;;;;;;;149.40;46.28;;;5.40;99.90;;;;;;5044676;28;20485;-80
2021/01/03 02:32:30;;;;;;;136.50;44.40;;;5.40;99.90;;;;;;5043576;28;20046;-80
2021/01/03 02:34:57;;;;;;;132.75;42.97;;;5.40;99.90;;;;;;5051096;28;20037;-79
2021/01/03 02:37:35;;;;;;;144.77;43.08;;;5.40;99.90;;;;;;5047460;28;20075;-80
2021/01/03 02:40:07;;;;;;;147.70;46.17;;;5.50;99.90;;;;;;5045928;28;20017;-80
2021/01/03 02:42:38;;;;;;;142.10;44.40;;;5.50;99.90;;;;;;5049352;28;20032;-80
2021/01/03 02:45:10;;;;;;;148.30;45.58;;;5.50;99.90;;;;;;5043817;28;20021;-80
2021/01/03 02:47:39;;;;;;;154.63;48.90;;;5.40;99.90;;;;;;5044218;28;20029;-80
2021/01/03 02:50:15;;;;;;;151.55;44.42;;;5.40;99.90;;;;;;5051694;28;20078;-80
2021/01/03 02:52:44;;;;;;;143.07;45.75;;;5.40;99.90;;;;;;5046164;28;20471;-80
2021/01/03 02:55:13;;;;;;;143.18;48.47;;;5.40;99.90;;;;;;5047573;28;20018;-80
2021/01/03 02:57:45;;;;;;;148.63;47.67;;;5.50;99.90;;;;;;5043794;28;20115;-80
2021/01/03 03:00:21;;;;;;;188.40;54.93;;;5.40;99.90;;;;;;5039790;28;20532;-80
2021/01/03 03:02:49;;;;;;;153.15;49.35;;;5.40;99.90;;;;;;5043127;28;20028;-80
2021/01/03 03:05:17;;;;;;;142.13;45.88;;;5.30;99.90;;;;;;5043913;28;20056;-80
2021/01/03 03:07:45;;;;;;;145.07;47.13;;;5.40;99.90;;;;;;5049848;28;20051;-80
2021/01/03 03:10:12;;;;;;;145.18;47.58;;;5.50;99.90;;;;;;5047536;28;20025;-74
2021/01/03 03:12:38;;;;;;;139.05;47.53;;;5.40;99.90;;;;;;5045485;28;20104;-74
2021/01/03 03:15:06;;;;;;;146.20;48.08;;;5.40;99.90;;;;;;5040927;28;20441;-74
2021/01/03 03:17:32;;;;;;;142.95;48.05;;;5.40;99.90;;;;;;5041955;28;20481;-74
2021/01/03 03:19:57;;;;;;;143.70;48.88;;;5.40;99.90;;;;;;5040324;28;20025;-74
2021/01/03 03:22:23;;;;;;;142.82;47.28;;;5.40;99.90;;;;;;5046364;28;20710;-74
2021/01/03 03:24:49;;;;;;;147.35;48.38;;;5.40;99.90;;;;;;5047214;28;20428;-74
2021/01/03 03:27:16;;;;;;;146.52;47.95;;;5.40;99.90;;;;;;5042600;28;20086;-74
2021/01/03 03:29:41;;;;;;;131.60;44.28;;;5.30;99.90;;;;;;5052326;28;20576;-74
2021/01/03 03:32:07;;;;;;;151.95;48.28;;;5.30;99.90;;;;;;5050671;28;20107;-74
2021/01/03 03:34:33;;;;;;;149.43;47.72;;;5.30;99.90;;;;;;5052636;28;20547;-74
2021/01/03 03:36:59;;;;;;;148.60;46.63;;;5.30;99.90;;;;;;5052514;28;20060;-74
2021/01/03 03:39:26;;;;;;;163.65;50.42;;;5.30;99.90;;;;;;5047067;28;20029;-74
2021/01/03 03:41:57;;;;;;;166.32;52.97;;;5.30;99.90;;;;;;5045412;28;20045;-74
2021/01/03 03:44:24;;;;;;;164.80;51.33;;;5.20;99.90;;;;;;5050310;28;20033;-74
2021/01/03 03:46:55;;;;;;;176.18;51.53;;;5.10;99.90;;;;;;5041517;28;20104;-74
2021/01/03 03:49:21;;;;;;;159.18;50.20;;;5.10;99.90;;;;;;5052623;28;20044;-74
2021/01/03 03:51:50;;;;;;;159.55;47.20;;;5.20;99.90;;;;;;5052143;28;20025;-74
2021/01/03 03:54:16;;;;;;;177.95;51.78;;;5.30;99.90;;;;;;5059519;28;20147;-80
2021/01/03 03:56:42;;;;;;;156.60;50.63;;;5.30;99.90;;;;;;5057673;28;20096;-80
2021/01/03 03:59:07;;;;;;;160.70;50.50;;;5.20;99.90;;;;;;5047398;28;20393;-80
2021/01/03 04:01:40;;;;;;;146.73;46.88;;;5.30;99.90;;;;;;5053915;28;20020;-80
2021/01/03 04:04:06;;;;;;;147.60;49.97;;;5.20;99.90;;;;;;5055834;28;20065;-80
2021/01/03 04:06:32;;;;;;;142.73;46.30;;;5.20;99.90;;;;;;5047708;28;20056;-80
2021/01/03 04:08:58;;;;;;;150.15;50.85;;;5.20;99.90;;;;;;5053054;28;20040;-80
2021/01/03 04:11:23;;;;;;;145.80;50.05;;;5.20;99.90;;;;;;5053395;28;20025;-79
2021/01/03 04:13:49;;;;;;;153.75;49.72;;;5.20;99.90;;;;;;5079175;28;20135;-80
2021/01/03 04:16:15;;;;;;;157.80;48.70;;;5.10;99.90;;;;;;5039483;28;20026;-80
2021/01/03 04:18:41;;;;;;;159.98;50.03;;;5.10;99.90;;;;;;5049991;28;20017;-79
2021/01/03 04:21:11;;;;;;;160.40;49.50;;;5.10;99.90;;;;;;5039428;28;20048;-80
2021/01/03 04:23:37;;;;;;;159.90;49.83;;;5.20;99.90;;;;;;5047034;28;20052;-80
2021/01/03 04:26:06;;;;;;;166.27;51.88;;;5.20;99.90;;;;;;5042753;28;20056;-80
2021/01/03 04:28:33;;;;;;;154.50;48.92;;;5.30;99.90;;;;;;5038505;28;20025;-80
2021/01/03 04:31:02;;;;;;;160.88;48.00;;;5.30;99.90;;;;;;5047679;28;20021;-80
2021/01/03 04:33:31;;;;;;;157.25;47.58;;;5.30;99.90;;;;;;5042713;28;20021;-79
2021/01/03 04:36:02;;;;;;;153.23;50.90;;;5.30;99.90;;;;;;5049748;28;20033;-80
2021/01/03 04:38:34;;;;;;;164.30;51.63;;;5.30;99.90;;;;;;5044443;28;20030;-79
2021/01/03 04:41:03;;;;;;;168.48;52.20;;;5.30;99.90;;;;;;5044221;28;20083;-80
2021/01/03 04:43:28;;;;;;;166.30;51.70;;;5.30;99.90;;;;;;5047237;28;20029;-80
2021/01/03 04:46:05;;;;;;;175.32;52.47;;;5.30;99.90;;;;;;5050475;28;20029;-80
2021/01/03 04:48:36;;;;;;;158.52;48.72;;;5.20;99.90;;;;;;5049016;28;20040;-80
2021/01/03 04:51:15;;;;;;;168.20;49.72;;;5.30;99.90;;;;;;5046720;28;20029;-80
2021/01/03 04:54:19;;;;;;;163.15;49.58;;;5.30;99.90;;;;;;5068306;28;20055;-80
2021/01/03 04:56:51;;;;;;;166.27;53.17;;;5.30;99.90;;;;;;5050531;28;20021;-80
2021/01/03 04:59:23;;;;;;;159.68;49.38;;;5.30;99.90;;;;;;5044574;28;20469;-80
2021/01/03 05:02:07;;;;;;;156.82;51.78;;;5.30;99.90;;;;;;5052218;28;20028;-80
2021/01/03 05:04:48;;;;;;;174.60;52.80;;;5.30;99.90;;;;;;5058669;28;20041;-80
2021/01/03 05:07:35;;;;;;;174.98;54.42;;;5.30;99.90;;;;;;5039247;28;20102;-80
2021/01/03 05:10:19;;;;;;;169.52;50.50;;;5.30;99.90;;;;;;5042943;28;20055;-80
2021/01/03 05:13:13;;;;;;;166.43;50.63;;;5.30;99.90;;;;;;5044842;28;20026;-80
2021/01/03 05:15:42;;;;;;;180.60;55.20;;;5.30;99.90;;;;;;5045385;28;20489;-80
2021/01/03 05:18:08;;;;;;;184.77;52.78;;;5.30;99.90;;;;;;5051672;28;20028;-80
2021/01/03 05:20:34;;;;;;;181.80;53.58;;;5.30;99.90;;;;;;5050797;28;20021;-80
2021/01/03 05:23:20;;;;;;;171.60;53.30;;;5.30;99.90;;;;;;5045310;28;20501;-80
2021/01/03 05:25:50;;;;;;;169.70;51.50;;;5.20;99.90;;;;;;5035189;28;20082;-80
2021/01/03 05:28:21;;;;;;;165.48;53.00;;;5.20;99.90;;;;;;5047111;28;20021;-80
2021/01/03 05:30:47;;;;;;;179.60;54.88;;;5.20;99.90;;;;;;5052565;28;20021;-80
2021/01/03 05:33:21;;;;;;;197.05;59.28;;;5.20;99.90;;;;;;5046670;28;20029;-80
2021/01/03 05:35:47;;;;;;;187.35;57.20;;;5.20;99.90;;;;;;5048528;28;20397;-80
2021/01/03 05:38:36;;;;;;;166.25;51.08;;;5.20;99.90;;;;;;5059196;28;20036;-80
2021/01/03 05:41:40;;;;;;;172.35;53.33;;;5.20;99.90;;;;;;5045736;28;20028;-80
2021/01/03 05:44:38;;;;;;;172.55;50.00;;;5.20;99.90;;;;;;5055534;28;20036;-80
2021/01/03 05:47:14;;;;;;;169.05;50.20;;;5.20;99.90;;;;;;5041788;28;20158;-80
2021/01/03 05:49:41;;;;;;;182.32;53.75;;;5.20;99.90;;;;;;5060826;28;20539;-80
2021/01/03 05:52:12;;;;;;;192.30;57.15;;;5.20;99.90;;;;;;5051026;28;20025;-80
2021/01/03 05:54:41;;;;;;;188.93;57.22;;;5.20;99.90;;;;;;5038910;28;20477;-80
2021/01/03 05:57:17;;;;;;;173.30;54.55;;;5.20;99.90;;;;;;5043894;28;20025;-80
2021/01/03 05:59:46;;;;;;;184.80;55.28;;;5.10;99.90;;;;;;5049858;28;20024;-80
2021/01/03 06:02:26;;;;;;;175.50;56.17;;;5.10;99.90;;;;;;5052345;28;20029;-80
2021/01/03 06:05:23;;;;;;;175.93;55.80;;;5.20;99.90;;;;;;5055171;28;20090;-80
2021/01/03 06:08:10;;;;;;;182.95;55.08;;;5.10;99.90;;;;;;5044263;28;20375;-80
2021/01/03 06:10:39;;;;;;;184.07;57.95;;;5.00;99.90;;;;;;5039121;28;20091;-80
2021/01/03 06:13:09;;;;;;;189.65;56.55;;;5.10;99.90;;;;;;5049233;28;20090;-80
2021/01/03 06:15:48;;;;;;;182.88;56.50;;;5.10;99.90;;;;;;5047601;28;20539;-80
2021/01/03 06:18:22;;;;;;;173.75;56.75;;;5.10;99.90;;;;;;5055052;28;20055;-80
2021/01/03 06:20:48;;;;;;;177.43;51.28;;;5.10;99.90;;;;;;5053107;28;20054;-80
2021/01/03 06:23:22;;;;;;;204.73;60.03;;;5.10;99.90;;;;;;5052057;28;20573;-80
2021/01/03 06:26:00;;;;;;;184.48;57.05;;;5.20;99.90;;;;;;5048906;28;20378;-80
2021/01/03 06:28:48;;;;;;;178.23;54.60;;;5.20;99.90;;;;;;5042502;28;20358;-80
2021/01/03 06:31:26;;;;;;;179.18;52.53;;;5.20;99.90;;;;;;5041027;28;20481;-80
2021/01/03 06:34:23;;;;;;;192.57;54.63;;;5.10;99.90;;;;;;5055184;28;20036;-80
2021/01/03 06:37:06;;;;;;;180.45;53.45;;;5.10;99.90;;;;;;5049296;28;20598;-80
2021/01/03 06:39:40;;;;;;;177.35;52.08;;;5.00;99.90;;;;;;5054717;28;20029;-80
2021/01/03 06:42:35;;;;;;;166.63;55.40;;;5.10;99.90;;;;;;5058895;28;20025;-80
2021/01/03 06:45:32;;;;;;;177.45;52.22;;;5.10;99.90;;;;;;5068667;28;20033;-79
2021/01/03 06:48:34;;;;;;;174.50;52.53;;;5.10;99.90;;;;;;5064703;28;20041;-80
2021/01/03 06:51:28;;;;;;;184.10;54.85;;;5.10;99.90;;;;;;5026324;28;20099;-80
2021/01/03 06:54:12;;;;;;;178.48;52.78;;;5.10;99.90;;;;;;5051394;28;20045;-79
2021/01/03 06:57:19;;;;;;;174.82;53.58;;;5.10;99.90;;;;;;5053895;28;20021;-79
2021/01/03 07:00:08;;;;;;;177.13;53.40;;;5.10;99.90;;;;;;5034598;28;20100;-80
2021/01/03 07:03:26;;;;;;;168.55;51.08;;;5.10;99.90;;;;;;5048723;28;20223;-79
2021/01/03 07:06:06;;;;;;;171.07;52.45;;;5.00;99.90;;;;;;5048941;28;20037;-80
2021/01/03 07:08:43;;;;;;;161.73;54.28;;;5.10;99.90;;;;;;5045901;28;20037;-80
2021/01/03 07:11:42;;;;;;;171.32;53.20;;;5.10;99.90;;;;;;5080701;28;20024;-79
2021/01/03 07:14:22;;;;;;;166.63;51.90;;;5.00;99.90;;;;;;5044091;28;20454;-79
2021/01/03 07:17:05;;;;;;;192.73;54.28;;;5.10;99.90;;;;;;5035815;28;20025;-79
2021/01/03 07:19:30;;;;;;;169.07;51.67;;;5.10;99.90;;;;;;5046893;28;20028;-79
2021/01/03 07:21:59;;;;;;;171.13;49.05;;;5.00;99.90;;;;;;5046756;28;20041;-79
2021/01/03 07:24:33;;;;;;;176.10;53.88;;;5.10;99.90;;;;;;5042476;28;20037;-79
2021/01/03 07:27:38;;;;;;;180.98;53.65;;;5.10;99.90;;;;;;5038842;28;20029;-79
2021/01/03 07:30:07;;;;;;;166.63;51.55;;;5.00;99.90;;;;;;5043111;28;20056;-79
2021/01/03 07:32:41;;;;;;;162.30;52.35;;;5.00;99.90;;;;;;5042453;28;20081;-79
2021/01/03 07:35:21;;;;;;;178.50;51.15;;;5.10;99.90;;;;;;5051801;28;20049;-80
2021/01/03 07:37:54;;;;;;;163.95;51.95;;;5.10;99.90;;;;;;5064854;28;20025;-79
2021/01/03 07:40:23;;;;;;;175.73;56.22;;;5.10;99.90;;;;;;5047917;28;20029;-79
2021/01/03 07:42:52;;;;;;;176.27;51.08;;;5.10;99.90;;;;;;5037679;28;20062;-79
2021/01/03 07:45:34;;;;;;;145.40;48.67;;;5.00;99.90;;;;;;5047844;28;20424;-80
2021/01/03 07:48:03;;;;;;;165.43;51.20;;;5.10;99.90;;;;;;5051324;28;20192;-80
2021/01/03 07:50:38;;;;;;;176.00;54.70;;;5.00;99.90;;;;;;5053215;28;20488;-79
2021/01/03 07:53:17;;;;;;;160.20;51.97;;;5.00;99.90;;;;;;5052301;28;20082;-79
2021/01/03 07:55:44;;;;;;;159.05;49.92;;;5.10;99.90;;;;;;5052216;28;20021;-79
2021/01/03 07:58:23;;;;;;;172.13;52.30;;;5.10;99.90;;;;;;5053277;28;20040;-79
2021/01/03 08:00:57;;;;;;;168.63;51.53;;;5.10;99.90;;;;;;5047531;28;20013;-80
2021/01/03 08:03:26;;;;;;;162.90;48.78;;;5.00;99.90;;;;;;5051476;28;20479;-80
2021/01/03 08:06:03;;;;;;;148.60;48.38;;;5.00;99.90;;;;;;5039531;28;20033;-80
2021/01/03 08:08:29;;;;;;;158.43;48.42;;;5.00;99.90;;;;;;5053249;28;20104;-79
2021/01/03 08:11:07;;;;;;;148.98;49.92;;;5.10;99.90;;;;;;5046069;28;20082;-80
2021/01/03 08:13:38;;;;;;;144.32;45.83;;;5.00;99.90;;;;;;5048061;28;20051;-79
2021/01/03 08:16:05;;;;;;;162.13;51.95;;;5.00;99.90;;;;;;5044200;28;20384;-79
2021/01/03 08:18:39;;;;;;;163.73;49.65;;;5.10;99.90;;;;;;5043282;28;20018;-79
2021/01/03 08:21:22;;;;;;;151.23;46.33;;;5.00;99.90;;;;;;5038720;28;20024;-80
2021/01/03 08:24:00;;;;;;;141.75;46.63;;;5.10;99.90;;;;;;5047705;28;20017;-80
2021/01/03 08:26:27;;;;;;;143.85;47.10;;;5.10;99.90;;;;;;5052857;28;20021;-80
2021/01/03 08:29:00;;;;;;;145.32;48.15;;;5.10;99.90;;;;;;5052047;28;20421;-79
2021/01/03 08:31:30;;;;;;;142.40;46.95;;;5.00;99.90;;;;;;5051360;28;20025;-80
2021/01/03 08:33:58;;;;;;;143.82;47.30;;;5.00;99.90;;;;;;5044308;28;20515;-79
2021/01/03 08:36:34;;;;;;;141.23;46.53;;;5.00;99.90;;;;;;5051186;28;20040;-80
2021/01/03 08:39:07;;;;;;;145.52;48.30;;;5.00;99.90;;;;;;5045099;28;20070;-79
2021/01/03 08:41:36;;;;;;;124.57;44.00;;;5.00;99.90;;;;;;5049864;28;20146;-81
2021/01/03 08:44:03;;;;;;;128.65;44.95;;;5.10;99.90;;;;;;5052181;28;20021;-79
2021/01/03 08:46:31;;;;;;;136.15;45.88;;;5.20;99.90;;;;;;5051732;28;20037;-81
2021/01/03 08:49:10;;;;;;;122.03;44.92;;;5.10;99.90;;;;;;5048331;28;20408;-81
2021/01/03 08:51:37;;;;;;;121.00;44.25;;;5.10;99.90;;;;;;5052590;28;20029;-81
2021/01/03 08:54:11;;;;;;;118.30;44.75;;;5.20;99.90;;;;;;5046043;28;20025;-81
2021/01/03 08:56:49;;;;;;;126.95;42.55;;;5.10;99.90;;;;;;5049389;28;20024;-81
2021/01/03 08:59:16;;;;;;;118.03;43.88;;;5.10;99.90;;;;;;5052613;28;20508;-81
2021/01/03 09:01:42;;;;;;;108.50;41.65;;;5.10;99.90;;;;;;5052375;28;20025;-81
2021/01/03 09:04:14;;;;;;;114.78;42.28;;;5.10;99.90;;;;;;5052498;28;20040;-81
2021/01/03 09:06:40;;;;;;;114.38;44.85;;;5.20;99.90;;;;;;5048546;28;20070;-81
2021/01/03 09:09:16;;;;;;;111.78;43.70;;;5.10;99.90;;;;;;5052053;28;20021;-80
2021/01/03 09:12:10;;;;;;;110.95;41.42;;;5.10;99.90;;;;;;5051357;28;20025;-80
2021/01/03 09:14:42;;;;;;;102.35;41.00;;;5.10;99.90;;;;;;5058241;28;20511;-80
2021/01/03 09:17:15;;;;;;;;;;;5.10;99.90;;;;;;5048171;28;20497;-77
2021/01/03 09:20:27;;;;;;;102.28;37.78;;;5.20;99.90;;;;;;5054278;28;19909;-80
2021/01/03 09:22:56;;;;;;;89.75;36.92;;;5.20;99.90;;;;;;5053074;28;20036;-80
2021/01/03 09:25:35;;;;;;;85.88;34.80;;;5.10;99.90;;;;;;5055875;28;20096;-80
2021/01/03 09:28:24;;;;;;;79.60;34.25;;;5.20;99.90;;;;;;5066091;28;20021;-80
2021/01/03 09:30:49;;;;;;;86.57;35.03;;;5.20;99.90;;;;;;5053753;28;20103;-80
2021/01/03 09:33:21;;;;;;;79.03;36.38;;;5.20;99.90;;;;;;5056017;28;20096;-80
2021/01/03 09:36:31;;;;;;;75.93;33.03;;;5.20;99.90;;;;;;5055346;28;20048;-81
2021/01/03 09:39:24;;;;;;;85.32;36.40;;;5.20;99.90;;;;;;5053768;28;20051;-80
2021/01/03 09:42:22;;;;;;;67.57;32.75;;;5.20;99.90;;;;;;5038654;28;20512;-80
2021/01/03 09:45:11;;;;;;;72.15;33.17;;;5.10;99.90;;;;;;5054616;28;20060;-80
2021/01/03 09:47:45;;;;;;;70.05;31.80;;;5.20;99.90;;;;;;5050761;28;20049;-80
2021/01/03 09:50:46;;;;;;;63.63;28.73;;;5.10;99.90;;;;;;5053817;28;20017;-82
2021/01/03 09:53:31;;;;;;;63.00;29.90;;;5.00;99.90;;;;;;5030177;28;20033;-80
2021/01/03 09:56:01;;;;;;;64.38;32.05;;;5.10;99.90;;;;;;5053262;28;20033;-80
2021/01/03 09:58:42;;;;;;;66.72;31.33;;;5.20;99.90;;;;;;5068287;28;20495;-80
2021/01/03 10:01:34;;;;;;;64.28;30.67;;;5.20;99.90;;;;;;5046174;28;20485;-80
2021/01/03 10:04:28;;;;;;;66.77;29.37;;;5.20;99.90;;;;;;5041482;28;20029;-80
2021/01/03 10:07:10;;;;;;;61.47;28.55;;;5.20;99.90;;;;;;5050262;28;20017;-80
2021/01/03 10:09:36;;;;;;;48.13;24.47;;;5.10;99.90;;;;;;5051828;28;20029;-80
2021/01/03 10:12:38;;;;;;;48.58;25.88;;;5.10;99.90;;;;;;5055326;28;20029;-80
2021/01/03 10:15:07;;;;;;;53.17;26.77;;;5.10;99.90;;;;;;5056422;28;20036;-80
2021/01/03 10:17:35;;;;;;;54.08;25.25;;;5.10;99.90;;;;;;5058447;28;20470;-80
2021/01/03 10:20:10;;;;;;;47.10;22.85;;;5.00;99.90;;;;;;5043824;28;20509;-80
2021/01/03 10:22:45;;;;;;;49.35;24.15;;;5.00;99.90;;;;;;5052538;28;20020;-80
2021/01/03 10:25:17;;;;;;;51.55;24.90;;;5.10;99.90;;;;;;5053945;28;20033;-80
2021/01/03 10:28:10;;;;;;;48.70;24.83;;;5.10;99.90;;;;;;5053705;28;20025;-80
2021/01/03 10:30:43;;;;;;;42.80;23.15;;;5.10;99.90;;;;;;5051981;28;20052;-80
2021/01/03 10:33:11;;;;;;;42.40;23.38;;;5.10;99.90;;;;;;5054852;28;20036;-80
2021/01/03 10:35:37;;;;;;;47.92;24.20;;;5.00;99.90;;;;;;5054006;28;20033;-80
2021/01/03 10:38:18;;;;;;;43.03;22.50;;;5.00;99.90;;;;;;5050972;28;20418;-80
2021/01/03 10:40:47;;;;;;;38.58;19.92;;;5.00;99.90;;;;;;5051208;28;20036;-80
2021/01/03 10:43:13;;;;;;;40.42;20.05;;;5.10;99.90;;;;;;5050558;28;20029;-80
2021/01/03 10:45:39;;;;;;;37.65;19.77;;;5.10;99.90;;;;;;5053587;28;20031;-80
2021/01/03 10:48:13;;;;;;;36.42;18.75;;;5.20;99.90;;;;;;5050449;28;20106;-79
2021/01/03 10:50:39;;;;;;;36.33;17.55;;;5.10;99.90;;;;;;5048068;28;20021;-80
2021/01/03 10:53:05;;;;;;;34.28;17.42;;;5.10;99.90;;;;;;5052905;28;20056;-79
2021/01/03 10:55:31;;;;;;;34.15;17.23;;;5.10;99.90;;;;;;5044248;28;20483;-80
2021/01/03 10:57:58;;;;;;;31.95;17.15;;;5.20;99.90;;;;;;5041665;28;20025;-80
2021/01/03 11:00:24;;;;;;;36.20;17.13;;;5.20;99.90;;;;;;5046666;28;20029;-79
2021/01/03 11:02:51;;;;;;;31.70;16.95;;;5.20;99.90;;;;;;5051264;28;20032;-79
2021/01/03 11:05:18;;;;;;;28.67;15.75;;;5.20;99.90;;;;;;5048835;28;20112;-80
2021/01/03 11:07:44;;;;;;;30.83;15.20;;;5.10;99.90;;;;;;5051298;28;20047;-80
2021/01/03 11:10:13;;;;;;;28.15;14.90;;;5.00;99.90;;;;;;5051507;28;20086;-80
2021/01/03 11:12:42;;;;;;;28.92;15.15;;;5.10;99.90;;;;;;5048158;28;20021;-80
2021/01/03 11:15:14;;;;;;;27.58;14.57;;;5.10;99.90;;;;;;5043715;28;20541;-80
2021/01/03 11:17:40;;;;;;;26.63;14.48;;;5.10;99.90;;;;;;5064455;28;20476;-80
2021/01/03 11:20:06;;;;;;;25.80;14.23;;;5.10;99.90;;;;;;5049755;28;20056;-80
2021/01/03 11:22:32;;;;;;;29.73;14.95;;;5.10;99.90;;;;;;5052189;28;20120;-80
2021/01/03 11:24:59;;;;;;;25.65;14.07;;;5.10;99.90;;;;;;5050446;28;20111;-80
2021/01/03 11:27:27;;;;;;;24.67;13.95;;;5.20;99.90;;;;;;5052399;28;20025;-80
2021/01/03 11:29:53;;;;;;;24.35;13.80;;;5.20;99.90;;;;;;5050479;28;20033;-80
2021/01/03 11:32:26;;;;;;;26.13;14.25;;;5.20;99.90;;;;;;5037482;28;20107;-80
2021/01/03 11:34:59;;;;;;;27.55;14.25;;;5.20;99.90;;;;;;5038746;28;20480;-80
2021/01/03 11:37:30;;;;;;;26.58;14.25;;;5.20;99.90;;;;;;5039341;28;20057;-80
2021/01/03 11:39:59;;;;;;;24.33;14.10;;;5.20;99.90;;;;;;5047409;28;20079;-79
2021/01/03 11:42:34;;;;;;;22.83;13.00;;;5.20;99.90;;;;;;5057565;28;20087;-80
2021/01/03 11:45:00;;;;;;;21.52;12.93;;;5.20;99.90;;;;;;5050181;28;20138;-80
2021/01/03 11:47:30;;;;;;;22.75;12.90;;;5.30;99.90;;;;;;5044928;28;20109;-79
2021/01/03 11:49:55;;;;;;;22.83;12.50;;;5.30;99.90;;;;;;5047998;28;20029;-79
2021/01/03 11:52:25;;;;;;;24.65;14.02;;;5.30;99.90;;;;;;5050064;28;20025;-80
2021/01/03 11:54:53;;;;;;;23.58;13.23;;;5.30;99.90;;;;;;5050726;28;20025;-79
2021/01/03 11:57:23;;;;;;;21.92;12.50;;;5.20;99.90;;;;;;5049216;28;20024;-80
2021/01/03 11:59:52;;;;;;;20.80;11.70;;;5.20;99.90;;;;;;5038662;28;20025;-79
2021/01/03 12:02:18;;;;;;;22.00;12.25;;;5.30;99.90;;;;;;5048169;28;20119;-80
2021/01/03 12:05:20;;;;;;;21.73;12.32;;;5.20;99.90;;;;;;5050857;28;20032;-79
2021/01/03 12:07:48;;;;;;;20.67;11.63;;;5.20;99.90;;;;;;5041424;28;20017;-81
2021/01/03 12:10:14;;;;;;;22.20;12.02;;;5.30;99.90;;;;;;5048457;28;20557;-80
2021/01/03 12:12:43;;;;;;;21.75;12.77;;;5.30;99.90;;;;;;5050308;28;20128;-80
2021/01/03 12:15:15;;;;;;;19.35;12.90;;;5.30;99.90;;;;;;5051731;28;20467;-80
2021/01/03 12:17:44;;;;;;;19.83;11.33;;;5.40;99.90;;;;;;5046133;28;20386;-80
2021/01/03 12:20:11;;;;;;;21.80;12.13;;;5.40;99.90;;;;;;5047299;28;20768;-80
2021/01/03 12:22:40;;;;;;;17.92;10.48;;;5.40;99.90;;;;;;5039709;28;20025;-80
2021/01/03 12:25:36;;;;;;;19.02;11.52;;;5.30;99.90;;;;;;5048180;28;20033;-80
2021/01/03 12:28:03;;;;;;;17.02;10.10;;;5.40;99.90;;;;;;5048489;28;20036;-80
2021/01/03 12:30:34;;;;;;;17.52;10.70;;;5.40;99.90;;;;;;5057420;28;20024;-80
2021/01/03 12:33:03;;;;;;;20.50;11.85;;;5.40;99.90;;;;;;5057023;28;20420;-80
2021/01/03 12:35:30;;;;;;;18.73;10.40;;;5.40;99.90;;;;;;5052027;28;20513;-80
2021/01/03 12:37:56;;;;;;;16.83;9.93;;;5.40;99.90;;;;;;5047397;28;20116;-80
2021/01/03 12:40:29;;;;;;;17.98;9.63;;;5.20;99.90;;;;;;5044331;28;20080;-80
2021/01/03 12:43:03;;;;;;;19.85;9.77;;;5.20;99.90;;;;;;5052015;28;20494;-80
2021/01/03 12:45:29;;;;;;;16.48;10.32;;;5.20;99.90;;;;;;5055252;28;20017;-80
2021/01/03 12:47:57;;;;;;;14.90;9.57;;;5.30;99.90;;;;;;5051232;28;20079;-80
2021/01/03 12:50:28;;;;;;;15.05;9.25;;;5.30;99.90;;;;;;5048117;28;20025;-80
2021/01/03 12:52:57;;;;;;;14.13;8.70;;;5.30;99.90;;;;;;5050423;28;20037;-80
2021/01/03 12:55:54;;;;;;;14.68;9.27;;;5.30;99.90;;;;;;5044162;28;20033;-80
2021/01/03 12:58:21;;;;;;;13.13;8.68;;;5.30;99.90;;;;;;5042205;28;20029;-80
2021/01/03 13:00:50;;;;;;;15.10;8.80;;;5.30;99.90;;;;;;5049849;28;20096;-80
2021/01/03 13:03:19;;;;;;;14.30;8.43;;;5.30;99.90;;;;;;5049972;28;20068;-80